Time;durP1;ratioP1;P1;durP2;ratioP2;P2;SDS_P1;SDS_P2;PMS_P1;PMS_P2;Temp;Humidity;BMP_temperature;BMP_pressure;BME280_temperature;BME280_humidity;BME280_pressure;Samples;Min_cycle;Max_cycle;Signal;HPM_P1;HPM_P2
2021/01/20 00:01:51;;;;;;;172.30;57.33;;;;;;;-6.31;94.53;96323.63;5110739;28;20261;-64
2021/01/20 00:04:18;;;;;;;150.73;54.20;;;;;;;-6.29;93.67;96325.97;5110829;28;20195;-64
2021/01/20 00:06:45;;;;;;;168.77;58.40;;;;;;;-6.17;94.54;96327.94;5111007;28;20251;-64
2021/01/20 00:09:11;;;;;;;157.83;57.37;;;;;;;-6.20;94.85;96324.97;5110852;28;20277;-64
2021/01/20 00:11:39;;;;;;;143.70;52.37;;;;;;;-6.22;94.48;96331.91;5110672;28;20669;-64
2021/01/20 00:14:06;;;;;;;128.37;48.90;;;;;;;-6.28;93.65;96328.34;5110614;28;20222;-64
2021/01/20 00:16:33;;;;;;;134.77;51.53;;;;;;;-6.41;92.92;96332.38;5110837;28;20207;-63
2021/01/20 00:19:00;;;;;;;142.43;52.50;;;;;;;-6.40;92.18;96327.16;5110728;28;20272;-64
2021/01/20 00:21:27;;;;;;;157.47;53.67;;;;;;;-6.46;92.34;96330.34;5110500;28;20327;-64
2021/01/20 00:23:54;;;;;;;134.20;49.17;;;;;;;-6.59;91.90;96325.84;5110545;28;20286;-64
2021/01/20 00:26:21;;;;;;;145.00;47.30;;;;;;;-6.67;91.71;96332.66;5110794;28;20230;-63
2021/01/20 00:28:49;;;;;;;110.80;41.97;;;;;;;-6.72;91.37;96337.41;5110388;28;20201;-64
2021/01/20 00:31:15;;;;;;;80.63;35.37;;;;;;;-6.81;90.70;96343.47;5110539;28;20345;-64
2021/01/20 00:33:42;;;;;;;73.30;32.27;;;;;;;-6.98;90.51;96341.03;5110376;28;20193;-64
2021/01/20 00:36:11;;;;;;;78.30;32.07;;;;;;;-6.98;90.09;96330.91;5110476;28;20205;-64
2021/01/20 00:38:38;;;;;;;75.50;30.73;;;;;;;-6.87;90.29;96332.28;5110274;28;20276;-65
2021/01/20 00:41:05;;;;;;;78.87;32.80;;;;;;;-6.93;90.55;96337.22;5110252;28;20285;-62
2021/01/20 00:43:32;;;;;;;93.97;45.10;;;;;;;-6.94;91.64;96333.09;5110282;28;20611;-64
2021/01/20 00:46:00;;;;;;;271.73;98.70;;;;;;;-6.80;93.16;96337.47;5110293;28;20319;-64
2021/01/20 00:48:30;;;;;;;219.00;79.17;;;;;;;-6.76;94.14;96338.69;5110276;28;20670;-64
2021/01/20 00:50:58;;;;;;;176.67;64.03;;;;;;;-6.75;95.07;96341.06;5110168;28;20292;-64
2021/01/20 00:53:25;;;;;;;160.53;61.10;;;;;;;-6.67;95.71;96330.91;5110215;28;20189;-62
2021/01/20 00:55:52;;;;;;;147.77;56.33;;;;;;;-6.63;96.69;96336.44;5113386;28;20284;-64
2021/01/20 00:58:19;;;;;;;147.63;53.87;;;;;;;-6.60;97.54;96326.00;5114573;28;20644;-64
2021/01/20 01:00:46;;;;;;;157.60;58.47;;;;;;;-6.41;98.37;96333.16;5114323;28;20323;-64
2021/01/20 01:03:13;;;;;;;137.10;52.50;;;;;;;-6.44;98.35;96330.19;5114401;28;20196;-64
2021/01/20 01:05:43;;;;;;;128.23;51.60;;;;;;;-6.38;99.65;96327.78;5114204;28;20283;-64
2021/01/20 01:08:09;;;;;;;123.93;48.30;;;;;;;-6.38;99.80;96345.47;5114217;28;20203;-64
2021/01/20 01:10:36;;;;;;;120.53;47.10;;;;;;;-6.41;99.72;96353.38;5114312;28;20199;-63
2021/01/20 01:13:03;;;;;;;141.30;54.33;;;;;;;-6.47;99.41;96338.09;5113881;28;20226;-64
2021/01/20 01:15:33;;;;;;;167.47;59.23;;;;;;;-6.35;99.13;96336.75;5114203;28;20221;-64
2021/01/20 01:18:00;;;;;;;141.97;54.73;;;;;;;-6.48;99.49;96342.38;5113995;28;20192;-64
2021/01/20 01:20:28;;;;;;;145.03;56.67;;;;;;;-6.47;99.74;96336.34;5113921;28;20726;-64
2021/01/20 01:22:58;;;;;;;143.63;56.13;;;;;;;-6.45;100.00;96329.38;5114219;28;20235;-64
2021/01/20 01:25:25;;;;;;;162.20;58.47;;;;;;;-6.40;100.00;96337.25;5114003;28;20684;-63
2021/01/20 01:27:52;;;;;;;153.43;56.63;;;;;;;-6.44;100.00;96325.13;5113929;28;20239;-64
2021/01/20 01:30:19;;;;;;;149.50;53.50;;;;;;;-6.24;100.00;96331.31;5113780;28;20302;-64
2021/01/20 01:32:46;;;;;;;125.63;50.77;;;;;;;-6.32;100.00;96329.63;5113745;28;20214;-61
2021/01/20 01:35:13;;;;;;;120.47;51.47;;;;;;;-6.30;100.00;96314.28;5113676;28;20300;-64
2021/01/20 01:37:41;;;;;;;113.43;47.57;;;;;;;-6.36;100.00;96308.16;5113861;28;20273;-64
2021/01/20 01:40:09;;;;;;;124.50;51.70;;;;;;;-6.34;100.00;96303.72;5113617;28;20611;-64
2021/01/20 01:42:36;;;;;;;123.33;50.50;;;;;;;-6.35;100.00;96304.69;5113600;28;20197;-64
2021/01/20 01:45:04;;;;;;;109.87;48.40;;;;;;;-6.35;100.00;96312.28;5113464;28;20245;-64
2021/01/20 01:47:30;;;;;;;109.30;46.00;;;;;;;-6.32;100.00;96306.88;5113461;28;20604;-64
2021/01/20 01:49:57;;;;;;;107.03;42.90;;;;;;;-6.32;100.00;96309.38;5113633;28;20562;-64
2021/01/20 01:52:24;;;;;;;95.50;43.20;;;;;;;-6.32;100.00;96309.38;5113689;28;20199;-64
2021/01/20 01:54:54;;;;;;;100.90;41.93;;;;;;;-6.26;100.00;96313.00;5113508;28;20643;-64
2021/01/20 01:57:21;;;;;;;93.27;40.87;;;;;;;-6.19;99.81;96322.28;5113677;28;20305;-63
2021/01/20 01:59:50;;;;;;;97.33;41.53;;;;;;;-6.17;100.00;96322.09;5113143;28;20205;-64
2021/01/20 02:02:17;;;;;;;89.43;37.70;;;;;;;-6.20;100.00;96319.91;5113204;28;20238;-65
2021/01/20 02:04:44;;;;;;;96.67;40.83;;;;;;;-6.06;99.19;96320.91;5113154;28;20277;-64
2021/01/20 02:07:11;;;;;;;85.00;38.87;;;;;;;-6.19;99.28;96312.16;5113053;28;20198;-64
2021/01/20 02:09:39;;;;;;;87.83;38.97;;;;;;;-6.23;98.98;96313.47;5113185;28;20285;-64
2021/01/20 02:12:26;;;;;;;97.20;41.10;;;;;;;-6.15;98.93;96323.50;5113005;28;20283;-64
2021/01/20 02:15:02;;;;;;;92.53;38.23;;;;;;;-6.20;99.14;96323.22;5112903;28;20611;-64
2021/01/20 02:17:36;;;;;;;90.00;39.10;;;;;;;-6.26;98.98;96311.25;5112994;28;20194;-63
2021/01/20 02:20:36;;;;;;;88.17;39.47;;;;;;;-6.39;97.53;96313.56;5112912;28;20190;-64
2021/01/20 02:23:07;;;;;;;99.83;40.83;;;;;;;-6.42;97.21;96316.41;5091727;28;20208;-64
2021/01/20 02:25:57;;;;;;;97.80;42.30;;;;;;;-6.49;97.17;96315.53;5112841;28;20687;-64
2021/01/20 02:28:33;;;;;;;86.27;37.43;;;;;;;-6.71;95.69;96331.41;5113015;28;20222;-64
2021/01/20 02:31:01;;;;;;;80.13;36.67;;;;;;;-6.79;95.18;96322.16;5112754;28;20283;-64
2021/01/20 02:33:32;;;;;;;94.87;39.83;;;;;;;-6.80;94.78;96324.84;5112534;28;20642;-64
2021/01/20 02:36:03;;;;;;;91.53;39.20;;;;;;;-6.78;95.12;96320.41;5112762;28;20672;-64
2021/01/20 02:38:30;;;;;;;88.87;37.73;;;;;;;-6.76;94.89;96321.81;5112771;28;20190;-64
2021/01/20 02:40:57;;;;;;;83.70;36.57;;;;;;;-6.85;95.21;96329.59;5112335;28;20667;-64
2021/01/20 02:43:24;;;;;;;80.20;34.93;;;;;;;-6.84;94.05;96333.69;5112316;28;20229;-64
2021/01/20 02:45:52;;;;;;;80.90;35.93;;;;;;;-6.85;94.14;96324.53;5112258;28;20280;-64
2021/01/20 02:48:20;;;;;;;80.70;36.43;;;;;;;-6.91;94.18;96312.56;5112639;28;20203;-64
2021/01/20 02:50:47;;;;;;;83.17;36.30;;;;;;;-6.83;94.08;96317.59;5112240;28;20194;-64
2021/01/20 02:53:17;;;;;;;86.17;38.03;;;;;;;-6.80;94.56;96324.84;5112061;28;20297;-64
2021/01/20 02:55:49;;;;;;;87.47;37.03;;;;;;;-6.81;95.35;96324.03;5112177;28;20226;-64
2021/01/20 02:58:23;;;;;;;89.23;38.50;;;;;;;-6.87;93.86;96327.22;5112491;28;20191;-65
2021/01/20 03:00:51;;;;;;;91.90;38.77;;;;;;;-6.92;94.11;96321.09;5112018;28;20317;-64
2021/01/20 03:03:21;;;;;;;74.97;35.50;;;;;;;-7.01;94.51;96321.13;5112179;28;20203;-64
2021/01/20 03:05:50;;;;;;;83.73;36.63;;;;;;;-7.02;94.34;96324.59;5112004;28;20197;-64
2021/01/20 03:08:18;;;;;;;89.00;37.27;;;;;;;-7.01;94.97;96313.53;5112038;28;20198;-64
2021/01/20 03:10:45;;;;;;;86.03;38.03;;;;;;;-6.93;95.23;96314.47;5111944;28;20274;-64
2021/01/20 03:13:13;;;;;;;109.27;43.30;;;;;;;-6.79;96.26;96322.16;5111560;28;20354;-62
2021/01/20 03:15:41;;;;;;;112.00;47.07;;;;;;;-6.74;96.70;96314.06;5111951;28;20194;-64
2021/01/20 03:18:08;;;;;;;112.40;47.97;;;;;;;-6.71;96.64;96318.78;5111286;28;20548;-64
2021/01/20 03:20:36;;;;;;;95.93;42.73;;;;;;;-6.71;96.98;96316.25;5111683;28;20369;-64
2021/01/20 03:23:03;;;;;;;136.83;53.57;;;;;;;-6.76;96.56;96314.22;5111632;28;20335;-64
2021/01/20 03:25:30;;;;;;;115.97;48.00;;;;;;;-6.74;97.31;96309.03;5111654;28;20804;-64
2021/01/20 03:28:00;;;;;;;96.93;38.93;;;;;;;-6.81;97.72;96320.72;5111517;28;20200;-64
2021/01/20 03:30:26;;;;;;;93.57;41.00;;;;;;;-6.74;97.83;96311.53;5111466;28;20285;-64
2021/01/20 03:32:53;;;;;;;79.67;37.23;;;;;;;-6.80;97.92;96309.66;5111345;28;20259;-64
2021/01/20 03:35:20;;;;;;;84.97;36.30;;;;;;;-6.80;96.56;96302.09;5111363;28;20201;-64
2021/01/20 03:37:48;;;;;;;92.90;39.97;;;;;;;-6.84;95.36;96303.38;5111244;28;20187;-64
2021/01/20 03:40:15;;;;;;;95.17;39.13;;;;;;;-6.91;95.91;96315.09;5111077;28;20227;-64
2021/01/20 03:42:42;;;;;;;85.57;36.67;;;;;;;-6.88;95.98;96307.19;5111220;28;20193;-64
2021/01/20 03:45:10;;;;;;;100.50;43.13;;;;;;;-6.75;96.55;96300.66;5111253;28;20738;-64
2021/01/20 03:47:37;;;;;;;91.90;41.60;;;;;;;-6.77;96.78;96302.53;5111226;28;20237;-64
2021/01/20 03:50:04;;;;;;;74.00;34.27;;;;;;;-6.76;97.22;96299.06;5111053;28;20284;-64
2021/01/20 03:52:31;;;;;;;72.23;31.13;;;;;;;-6.56;97.01;96300.22;5111409;28;20319;-63
2021/01/20 03:54:59;;;;;;;105.73;42.97;;;;;;;-6.59;97.14;96300.56;5110939;28;20190;-63
2021/01/20 03:57:26;;;;;;;74.03;32.77;;;;;;;-6.58;97.19;96303.88;5111022;28;20605;-64
2021/01/20 03:59:52;;;;;;;73.23;30.17;;;;;;;-6.61;97.39;96299.94;5110921;28;20229;-65
2021/01/20 04:02:19;;;;;;;114.77;51.47;;;;;;;-6.57;97.58;96298.66;5110991;28;20233;-64
2021/01/20 04:04:46;;;;;;;88.70;39.63;;;;;;;-6.58;96.92;96312.25;5110879;28;20235;-64
2021/01/20 04:07:13;;;;;;;77.87;34.43;;;;;;;-6.51;96.98;96312.34;5111202;28;20201;-64
2021/01/20 04:09:40;;;;;;;137.90;50.40;;;;;;;-6.47;96.68;96308.53;5111101;28;20617;-65
2021/01/20 04:12:08;;;;;;;145.60;52.27;;;;;;;-6.55;96.72;96306.84;5111052;28;20194;-62
2021/01/20 04:14:35;;;;;;;82.67;36.73;;;;;;;-6.45;96.89;96315.97;5110369;28;20290;-64
2021/01/20 04:17:02;;;;;;;114.20;51.83;;;;;;;-6.48;96.71;96317.09;5110792;28;20273;-64
2021/01/20 04:19:29;;;;;;;88.83;40.10;;;;;;;-6.46;96.43;96319.44;5110592;28;20310;-64
2021/01/20 04:21:58;;;;;;;89.67;40.30;;;;;;;-6.35;96.09;96324.91;5110514;28;20271;-64
2021/01/20 04:24:25;;;;;;;76.20;33.30;;;;;;;-6.41;96.54;96338.22;5110721;28;20659;-64
2021/01/20 04:26:52;;;;;;;84.40;38.07;;;;;;;-6.41;96.94;96338.22;5110472;28;20317;-63
2021/01/20 04:29:20;;;;;;;77.80;37.60;;;;;;;-6.38;96.39;96337.09;5109574;28;20699;-63
2021/01/20 04:31:47;;;;;;;97.20;41.87;;;;;;;-6.40;96.46;96352.44;5110295;28;20300;-64
2021/01/20 04:34:13;;;;;;;85.93;42.90;;;;;;;-6.29;96.80;96357.13;5110541;28;20279;-64
2021/01/20 04:36:40;;;;;;;88.97;44.60;;;;;;;-6.20;97.17;96356.09;5110468;28;20193;-63
2021/01/20 04:39:07;;;;;;;88.40;42.83;;;;;;;-6.15;97.12;96353.06;5110728;28;20281;-64
2021/01/20 04:41:34;;;;;;;84.67;39.13;;;;;;;-6.16;97.13;96351.50;5110466;28;20227;-64
2021/01/20 04:44:01;;;;;;;81.10;36.23;;;;;;;-6.05;97.52;96353.63;5110305;28;20209;-64
2021/01/20 04:46:30;;;;;;;74.20;33.33;;;;;;;-6.11;97.23;96364.41;5110306;28;20202;-63
2021/01/20 04:48:58;;;;;;;76.37;32.93;;;;;;;-6.13;98.04;96371.41;5110272;28;20194;-64
2021/01/20 04:51:27;;;;;;;77.00;31.67;;;;;;;-6.11;97.87;96360.16;5110197;28;20274;-64
2021/01/20 04:53:56;;;;;;;70.37;33.33;;;;;;;-6.13;97.93;96368.88;5110298;28;20195;-64
2021/01/20 04:56:24;;;;;;;66.40;31.50;;;;;;;-6.15;97.78;96376.63;5110148;28;20203;-64
2021/01/20 04:58:52;;;;;;;77.03;35.40;;;;;;;-6.12;98.30;96383.06;5110199;28;20209;-64
2021/01/20 05:01:19;;;;;;;89.80;39.03;;;;;;;-6.10;97.82;96381.97;5110160;28;20267;-65
2021/01/20 05:03:49;;;;;;;96.97;40.03;;;;;;;-6.01;97.28;96384.44;5110134;28;20201;-64
2021/01/20 05:06:16;;;;;;;92.97;40.50;;;;;;;-6.17;97.74;96386.09;5110244;28;20674;-64
2021/01/20 05:08:43;;;;;;;95.10;43.13;;;;;;;-6.30;97.45;96383.34;5110084;28;20215;-63
2021/01/20 05:11:10;;;;;;;105.83;44.70;;;;;;;-6.36;98.03;96375.63;5110071;28;20279;-64
2021/01/20 05:13:37;;;;;;;109.03;45.60;;;;;;;-6.20;97.92;96386.44;5109611;28;20692;-63
2021/01/20 05:16:04;;;;;;;113.50;45.50;;;;;;;-6.19;97.68;96387.25;5110033;28;20201;-63
2021/01/20 05:18:48;;;;;;;104.43;43.13;;;;;;;-6.19;97.48;96382.97;5109925;28;20639;-64
2021/01/20 05:21:18;;;;;;;72.87;34.20;;;;;;;-6.13;97.80;96386.56;5109833;28;20225;-63
2021/01/20 05:23:45;;;;;;;90.40;35.73;;;;;;;-6.15;97.51;96391.78;5109803;28;20246;-63
2021/01/20 05:26:12;;;;;;;102.07;39.87;;;;;;;-6.15;97.36;96389.28;5109671;28;20290;-64
2021/01/20 05:28:39;;;;;;;105.60;40.73;;;;;;;-6.11;97.93;96395.56;5109953;28;20282;-63
2021/01/20 05:31:06;;;;;;;134.33;48.27;;;;;;;-6.01;97.70;96394.56;5110053;28;20754;-63
2021/01/20 05:33:37;;;;;;;114.57;50.53;;;;;;;-6.05;97.73;96398.38;5109897;28;20296;-64
2021/01/20 05:36:09;;;;;;;89.80;43.77;;;;;;;-5.98;96.98;96405.16;5110021;28;20684;-64
2021/01/20 05:38:38;;;;;;;85.97;38.67;;;;;;;-5.99;96.52;96401.03;5110003;28;20248;-64
2021/01/20 05:41:19;;;;;;;79.53;35.33;;;;;;;-5.93;97.29;96402.09;5111535;28;20313;-64
2021/01/20 05:43:46;;;;;;;71.30;33.90;;;;;;;-5.85;96.66;96396.94;5113799;28;20202;-63
2021/01/20 05:46:13;;;;;;;67.70;34.27;;;;;;;-5.78;96.26;96388.50;5113747;28;20285;-64
2021/01/20 05:48:46;;;;;;;61.73;30.63;;;;;;;-5.80;96.22;96397.22;5113694;28;20665;-65
2021/01/20 05:51:14;;;;;;;62.13;29.30;;;;;;;-5.63;95.12;96413.88;5113817;28;20213;-64
2021/01/20 05:53:51;;;;;;;61.00;28.40;;;;;;;-5.63;95.36;96416.41;5113694;28;20198;-63
2021/01/20 05:56:25;;;;;;;54.83;28.90;;;;;;;-5.65;95.42;96406.44;5113763;28;20461;-64
2021/01/20 05:58:52;;;;;;;70.73;31.63;;;;;;;-5.63;96.24;96402.00;5113522;28;20258;-65
2021/01/20 06:01:19;;;;;;;71.67;33.87;;;;;;;-5.62;96.62;96405.31;5113251;28;20236;-64
2021/01/20 06:03:47;;;;;;;74.27;34.97;;;;;;;-5.63;96.06;96408.81;5113599;28;20187;-64
2021/01/20 06:06:16;;;;;;;83.33;39.00;;;;;;;-5.53;95.97;96411.91;5113319;28;20203;-64
2021/01/20 06:08:44;;;;;;;82.77;37.60;;;;;;;-5.48;95.75;96419.75;5113463;28;20202;-64
2021/01/20 06:11:11;;;;;;;86.33;40.33;;;;;;;-5.40;95.50;96413.84;5113245;28;20290;-64
2021/01/20 06:13:39;;;;;;;100.00;46.03;;;;;;;-5.43;95.58;96417.50;5112751;28;20310;-64
2021/01/20 06:16:16;;;;;;;103.67;49.70;;;;;;;-5.45;95.76;96411.03;5113092;28;20222;-64
2021/01/20 06:18:48;;;;;;;105.77;51.97;;;;;;;-5.54;95.86;96410.34;5113055;28;20372;-64
2021/01/20 06:21:17;;;;;;;187.20;90.07;;;;;;;-5.31;95.14;96403.47;5112982;28;20230;-65
2021/01/20 06:23:54;;;;;;;162.50;77.57;;;;;;;-5.37;95.56;96404.16;5112971;28;20187;-64
2021/01/20 06:26:23;;;;;;;165.03;67.00;;;;;;;-5.34;94.99;96408.13;5112904;28;20285;-65
2021/01/20 06:28:55;;;;;;;135.33;52.70;;;;;;;-5.41;95.30;96425.72;5113148;28;20584;-63
2021/01/20 06:31:24;;;;;;;134.27;56.07;;;;;;;-5.35;95.21;96422.50;5112877;28;20279;-64
2021/01/20 06:33:51;;;;;;;161.53;67.87;;;;;;;-5.49;95.01;96430.88;5112775;28;20195;-63
2021/01/20 06:36:42;;;;;;;162.00;70.23;;;;;;;-5.48;96.47;96426.59;5112781;28;20218;-64
2021/01/20 06:39:36;;;;;;;125.93;58.97;;;;;;;-5.33;96.25;96433.25;5092892;28;20282;-64
2021/01/20 06:42:03;;;;;;;103.90;47.50;;;;;;;-5.30;94.92;96427.84;5112455;28;20230;-64
2021/01/20 06:44:30;;;;;;;106.67;49.87;;;;;;;-5.39;95.13;96439.00;5112560;28;20191;-64
2021/01/20 06:47:05;;;;;;;180.37;62.47;;;;;;;-5.27;95.82;96427.50;5112659;28;20199;-63
2021/01/20 06:49:33;;;;;;;140.03;53.33;;;;;;;-5.33;95.61;96435.03;5112950;28;20191;-64
2021/01/20 06:52:09;;;;;;;152.87;53.00;;;;;;;-5.31;95.25;96438.94;5111521;28;20199;-64
2021/01/20 06:54:41;;;;;;;174.27;62.73;;;;;;;-5.22;95.13;96429.53;5112548;28;20203;-64
2021/01/20 06:57:30;;;;;;;183.90;66.93;;;;;;;-5.06;96.33;96431.91;5112362;28;20944;-64
2021/01/20 07:00:19;;;;;;;122.53;53.87;;;;;;;-4.84;94.98;96435.34;5112284;28;20230;-64
2021/01/20 07:03:00;;;;;;;133.10;57.20;;;;;;;-4.59;94.90;96438.41;5112642;28;20213;-64
2021/01/20 07:05:37;;;;;;;127.23;55.00;;;;;;;-4.24;94.03;96442.75;5112198;28;20203;-64
2021/01/20 07:08:07;;;;;;;163.50;69.73;;;;;;;-4.01;93.32;96447.69;5112041;28;20199;-65
2021/01/20 07:11:07;;;;;;;96.23;44.30;;;;;;;-3.77;91.44;96451.66;5112032;28;20233;-64
2021/01/20 07:13:36;;;;;;;112.73;42.63;;;;;;;-3.82;90.73;96459.81;5112159;28;20668;-63
2021/01/20 07:16:06;;;;;;;95.20;46.63;;;;;;;-3.82;91.63;96457.28;5111945;28;20275;-65
2021/01/20 07:18:33;;;;;;;125.03;47.87;;;;;;;-3.73;91.58;96463.03;5111943;28;20669;-64
2021/01/20 07:21:00;;;;;;;122.30;50.83;;;;;;;-3.77;91.27;96460.06;5111783;28;20262;-64
2021/01/20 07:23:28;;;;;;;117.57;47.27;;;;;;;-3.73;92.26;96466.34;5111754;28;20191;-64
2021/01/20 07:25:55;;;;;;;250.40;93.37;;;;;;;-3.60;92.51;96474.13;5111777;28;20194;-64
2021/01/20 07:28:24;;;;;;;224.70;89.33;;;;;;;-3.42;92.16;96470.34;5111912;28;20787;-64
2021/01/20 07:31:04;;;;;;;562.23;296.87;;;;;;;-3.19;91.60;96471.72;5111546;28;20662;-64
2021/01/20 07:33:32;;;;;;;107.10;54.53;;;;;;;-3.22;89.63;96468.78;5112010;28;20218;-64
2021/01/20 07:36:09;;;;;;;89.17;41.50;;;;;;;-3.06;89.02;96471.84;5111548;28;20195;-65
2021/01/20 07:38:37;;;;;;;148.03;54.30;;;;;;;-2.89;88.79;96479.22;5111612;28;20196;-64
2021/01/20 07:41:17;;;;;;;135.23;48.03;;;;;;;-2.87;89.33;96493.31;5111462;28;20227;-64
2021/01/20 07:43:44;;;;;;;70.67;35.40;;;;;;;-2.63;89.20;96485.25;5111509;28;20195;-64
2021/01/20 07:46:16;;;;;;;82.00;46.00;;;;;;;-2.26;89.71;96486.66;5111538;28;20194;-64
2021/01/20 07:48:42;;;;;;;64.47;31.87;;;;;;;-2.22;88.83;96492.16;5111369;28;20200;-65
2021/01/20 07:51:15;;;;;;;64.23;31.60;;;;;;;-1.96;87.99;96483.84;5111285;28;20200;-64
2021/01/20 07:53:56;;;;;;;108.20;45.70;;;;;;;-1.58;87.80;96489.25;5111394;28;20282;-64
2021/01/20 07:56:23;;;;;;;52.23;28.30;;;;;;;-1.47;87.75;96481.84;5111311;28;20188;-64
2021/01/20 07:58:50;;;;;;;51.13;27.33;;;;;;;-1.32;87.67;96474.81;5111395;28;20640;-65
2021/01/20 08:01:25;;;;;;;101.00;41.73;;;;;;;-1.08;86.28;96475.22;5111060;28;20273;-64
2021/01/20 08:03:52;;;;;;;65.80;30.77;;;;;;;-1.15;85.92;96480.31;5111081;28;20231;-64
2021/01/20 08:06:19;;;;;;;190.93;71.80;;;;;;;-0.92;86.02;96479.94;5111075;28;20206;-64
2021/01/20 08:08:55;;;;;;;102.87;43.33;;;;;;;-0.69;84.92;96485.41;5111006;28;20202;-63
2021/01/20 08:11:25;;;;;;;53.50;29.23;;;;;;;-0.50;84.11;96488.94;5111141;28;20219;-64
2021/01/20 08:13:53;;;;;;;56.80;28.40;;;;;;;-0.33;84.08;96477.28;5110919;28;20693;-64
2021/01/20 08:16:20;;;;;;;68.27;30.40;;;;;;;-0.22;83.00;96492.00;5110873;28;20237;-65
2021/01/20 08:18:48;;;;;;;58.40;29.60;;;;;;;0.03;81.13;96488.78;5110718;28;20198;-65
2021/01/20 08:21:15;;;;;;;70.70;34.13;;;;;;;-0.30;79.27;96491.44;5110650;28;20716;-64
2021/01/20 08:23:55;;;;;;;60.73;30.13;;;;;;;-0.32;81.31;96488.28;5110652;28;20203;-64
2021/01/20 08:26:27;;;;;;;70.40;34.80;;;;;;;-0.22;81.87;96486.09;5110705;28;20195;-65
2021/01/20 08:29:08;;;;;;;78.13;35.13;;;;;;;-0.13;81.61;96480.56;5110585;28;20333;-64
2021/01/20 08:31:36;;;;;;;104.33;41.33;;;;;;;-0.01;82.00;96484.09;5110493;28;20191;-64
2021/01/20 08:34:21;;;;;;;180.40;66.87;;;;;;;0.00;83.46;96479.75;5110545;28;20205;-64
2021/01/20 08:36:55;;;;;;;429.63;150.37;;;;;;;0.31;81.86;96489.25;5110453;28;20195;-63
2021/01/20 08:39:24;;;;;;;109.40;47.30;;;;;;;0.45;80.97;96489.97;5110527;28;20202;-64
2021/01/20 08:42:17;;;;;;;435.23;132.33;;;;;;;0.64;80.25;96482.19;5110480;28;20235;-65
2021/01/20 08:45:11;;;;;;;447.07;142.17;;;;;;;0.77;79.33;96482.09;5110769;28;20207;-65
2021/01/20 08:47:47;;;;;;;135.50;48.00;;;;;;;1.02;76.79;96478.78;5110361;28;20188;-64
2021/01/20 08:50:15;;;;;;;317.97;95.17;;;;;;;1.11;77.21;96477.53;5110387;28;20204;-65
2021/01/20 08:52:43;;;;;;;240.43;71.77;;;;;;;1.34;78.51;96482.84;5110330;28;20207;-65
2021/01/20 08:55:20;;;;;;;70.87;32.90;;;;;;;1.65;76.76;96484.53;5110587;28;20231;-64
2021/01/20 08:57:49;;;;;;;54.90;29.47;;;;;;;1.71;75.26;96478.56;5110406;28;20287;-65
2021/01/20 09:00:19;;;;;;;49.07;27.43;;;;;;;1.73;74.42;96482.47;5110548;28;20282;-64
2021/01/20 09:02:47;;;;;;;58.00;27.47;;;;;;;2.09;75.19;96479.09;5110271;28;20227;-62
2021/01/20 09:05:33;;;;;;;48.77;25.73;;;;;;;2.42;75.29;96485.63;5109858;28;20194;-65
2021/01/20 09:08:00;;;;;;;55.77;27.50;;;;;;;2.63;73.51;96492.06;5110391;28;20190;-64
2021/01/20 09:10:28;;;;;;;49.00;26.37;;;;;;;2.67;71.94;96482.91;5110224;28;20194;-65
2021/01/20 09:12:55;;;;;;;378.20;120.00;;;;;;;2.58;70.80;96485.81;5109914;28;20627;-64
2021/01/20 09:15:22;;;;;;;62.67;30.40;;;;;;;2.55;70.91;96481.09;5110976;28;20272;-65
2021/01/20 09:17:49;;;;;;;54.30;28.80;;;;;;;2.73;69.91;96476.91;5114381;28;20260;-64
2021/01/20 09:20:16;;;;;;;134.20;49.73;;;;;;;2.82;71.42;96466.13;5114192;28;20226;-64
2021/01/20 09:22:43;;;;;;;420.20;137.03;;;;;;;2.94;71.83;96458.41;5114369;28;20707;-65
2021/01/20 09:25:11;;;;;;;66.33;31.33;;;;;;;2.65;72.12;96452.34;5114209;28;20316;-64
2021/01/20 09:27:39;;;;;;;45.37;24.70;;;;;;;2.60;74.09;96445.31;5114111;28;20251;-64
2021/01/20 09:30:07;;;;;;;38.07;21.50;;;;;;;2.70;73.21;96454.25;5114112;28;20290;-65
2021/01/20 09:32:36;;;;;;;29.43;15.13;;;;;;;2.95;68.00;96449.72;5113968;28;20246;-65
2021/01/20 09:35:07;;;;;;;26.77;13.77;;;;;;;3.02;67.17;96445.28;5114184;28;20205;-64
2021/01/20 09:37:34;;;;;;;25.00;14.47;;;;;;;3.21;67.50;96438.25;5114009;28;20233;-64
2021/01/20 09:40:03;;;;;;;23.47;13.30;;;;;;;3.23;67.14;96434.47;5113867;28;20667;-63
2021/01/20 09:42:30;;;;;;;27.53;13.37;;;;;;;3.27;66.62;96433.00;5113737;28;20223;-65
2021/01/20 09:44:58;;;;;;;25.97;12.93;;;;;;;3.46;65.62;96439.59;5113776;28;20278;-64
2021/01/20 09:47:25;;;;;;;21.87;12.77;;;;;;;3.68;65.79;96421.81;5114069;28;20274;-64
2021/01/20 09:49:51;;;;;;;20.30;10.70;;;;;;;3.82;63.89;96417.97;5113697;28;20193;-65
2021/01/20 09:52:20;;;;;;;34.63;13.30;;;;;;;4.05;62.58;96419.69;5113728;28;20278;-64
2021/01/20 09:54:47;;;;;;;48.83;8.23;;;;;;;4.36;59.82;96413.31;5113540;28;20684;-64
2021/01/20 09:57:14;;;;;;;35.33;10.53;;;;;;;4.61;59.49;96410.38;5113866;28;20199;-64
2021/01/20 09:59:40;;;;;;;62.70;27.70;;;;;;;4.54;62.76;96412.31;5113876;28;20203;-64
2021/01/20 10:02:08;;;;;;;44.27;20.20;;;;;;;4.71;62.36;96402.81;5113503;28;20238;-64
2021/01/20 10:04:35;;;;;;;13.97;4.63;;;;;;;4.92;57.68;96403.94;5113437;28;20331;-65
2021/01/20 10:07:05;;;;;;;5.80;3.60;;;;;;;5.20;57.36;96398.66;5113318;28;20191;-64
2021/01/20 10:09:33;;;;;;;10.90;5.40;;;;;;;5.46;57.83;96394.63;5113288;28;20194;-64
2021/01/20 10:12:00;;;;;;;9.10;4.30;;;;;;;5.09;56.41;96387.44;5113595;28;20219;-64
2021/01/20 10:14:27;;;;;;;7.40;3.90;;;;;;;5.22;56.22;96383.75;5112853;28;20226;-65
2021/01/20 10:16:54;;;;;;;8.30;3.80;;;;;;;5.13;55.92;96385.19;5113177;28;20225;-65
2021/01/20 10:19:22;;;;;;;9.30;4.00;;;;;;;5.03;55.61;96387.63;5113148;28;20213;-61
2021/01/20 10:21:49;;;;;;;11.30;5.43;;;;;;;5.19;56.66;96382.41;5112991;28;20223;-64
2021/01/20 10:24:15;;;;;;;6.87;3.83;;;;;;;5.25;55.09;96367.03;5113036;28;20227;-64
2021/01/20 10:26:42;;;;;;;9.37;4.10;;;;;;;5.55;55.40;96368.22;5112230;28;20230;-64
2021/01/20 10:29:10;;;;;;;7.70;3.87;;;;;;;5.91;55.33;96374.59;5112553;28;20229;-63
2021/01/20 10:31:39;;;;;;;6.20;3.33;;;;;;;5.71;53.83;96366.59;5112778;28;20191;-64
2021/01/20 10:34:07;;;;;;;5.90;3.40;;;;;;;5.67;53.60;96360.38;5112834;28;20688;-65
2021/01/20 10:36:36;;;;;;;6.27;3.70;;;;;;;5.23;55.00;96354.38;5113227;28;20212;-64
2021/01/20 10:39:03;;;;;;;7.27;3.73;;;;;;;5.30;55.52;96359.38;5112674;28;20661;-64
2021/01/20 10:41:30;;;;;;;4.63;3.27;;;;;;;5.50;56.00;96354.47;5112598;28;20623;-64
2021/01/20 10:43:57;;;;;;;4.70;3.33;;;;;;;5.56;55.12;96356.09;5112609;28;20233;-63
2021/01/20 10:46:25;;;;;;;7.37;3.50;;;;;;;5.44;54.20;96355.41;5113000;28;20608;-64
2021/01/20 10:48:53;;;;;;;6.10;3.50;;;;;;;5.63;55.14;96351.53;5112614;28;20205;-63
2021/01/20 10:51:21;;;;;;;6.70;3.83;;;;;;;5.92;54.44;96347.00;5112561;28;20199;-63
2021/01/20 10:53:49;;;;;;;5.47;3.80;;;;;;;5.87;53.98;96347.72;5112755;28;20226;-64
2021/01/20 10:56:16;;;;;;;7.00;3.77;;;;;;;5.89;54.42;96347.47;5112548;28;20198;-64
2021/01/20 10:58:43;;;;;;;6.23;2.87;;;;;;;5.79;54.43;96340.38;5112293;28;20237;-64
2021/01/20 11:01:10;;;;;;;5.03;3.30;;;;;;;6.24;54.34;96340.06;5112095;28;20267;-64
2021/01/20 11:03:39;;;;;;;6.87;3.20;;;;;;;6.14;54.70;96339.97;5112419;28;20195;-64
2021/01/20 11:06:06;;;;;;;5.57;3.27;;;;;;;6.39;53.09;96332.47;5112227;28;20195;-63
2021/01/20 11:08:33;;;;;;;6.57;3.30;;;;;;;6.28;52.88;96335.97;5112231;28;20190;-64
2021/01/20 11:11:02;;;;;;;5.73;3.20;;;;;;;6.09;53.55;96328.84;5112409;28;20192;-64
2021/01/20 11:13:30;;;;;;;5.03;3.30;;;;;;;5.99;54.12;96327.72;5111938;28;20310;-64
2021/01/20 11:15:57;;;;;;;5.27;3.50;;;;;;;6.08;54.27;96330.63;5112024;28;20195;-63
2021/01/20 11:18:25;;;;;;;6.17;3.00;;;;;;;5.92;53.43;96329.72;5112004;28;20219;-64
2021/01/20 11:20:52;;;;;;;10.03;3.53;;;;;;;5.95;54.04;96326.66;5112675;28;20595;-64
2021/01/20 11:23:19;;;;;;;6.70;3.60;;;;;;;5.98;54.04;96335.69;5111855;28;20223;-64
2021/01/20 11:25:47;;;;;;;6.13;3.30;;;;;;;6.10;54.49;96322.66;5112032;28;20244;-64
2021/01/20 11:28:15;;;;;;;9.70;4.73;;;;;;;6.24;54.19;96321.22;5111781;28;20227;-63